Portada
METAR-TAF:

METAR-TAF

Aeroports :

Aeroport de Manchester

Manchester, Anglaterra

latitud: 53-21N, longitud: 002-17W, altitud: 69 m

Observació

L'informe es va fer fa 23 minuts, a les 05:50 UTC
Vent 14 kt del Nord/Nord-Est
Temperatura 3°C
Humitat 65%
Pressió 1042 hPa
Visibilitat 10 km o més

METAR: EGCC 290550Z AUTO 03014KT 9999 NCD 03/M03 Q1042 NOSIG

Hora: 07:13 (06:13 UTC)

Pronòstic

L'informe es va fer fa 1 hora i 13 minuts, a les 05:00 UTC
Pronòstic vàlid del 29 a les 06 UTC al 30 a les 12 UTC
Vent 12 kt del Nord/Nord-Est
Visibilitat 10 km o més
Núvols disperses a una alçada de 3500 ft
Probabilitat 30% :
Temporalment
l' 29 a les 09 UTC al 29 a les 15 UTC
Vent 15 kt del Nord-Est amb ràfegues de 25 kt
Evolucionant progressivament
l' 29 a les 21 UTC al 29 a les 24 UTC
Vent 5 kt del Nord-Oest

TAF: EGCC 290500Z 2906/3012 02012KT 9999 SCT035 PROB30 TEMPO 2909/2915 04015G25KT BECMG 2921/2924 32005KT

Observacions i pronòstics meteorològics de més de 4000 aeroports (METAR i TAF).

Les estacions disponibles són els punts grocs i vermells al mapa.

Posi el ratolí al punt desitjat per veure el nom de l'estació.

Feu clic per veure les observacions i els pronòstics meteorològics.

Per canviar el mapa: feu clic els botons verds amb una creu de color negre per apropar; al botó verd amb un guió per allunyar la imatge; o en les fletxes verdes per a mapes adjacents.


METAR-TAF: